Latest Weather Observations for St Kilda Harbour RMYS

IDV60801

Issued at 2:31 am EDT Friday 6 March 2015 (issued every 30 minutes, with the page automatically refreshed every 10 minutes)

About weather observations | Map of weather stations | Latest weather observations for VIC | Other Formats
Station Details ID: 086220 Name: ST KILDA HARBOUR - RMYS Lat: -37.86 Lon: 144.96 Height: 6.4 m
Data from the previous 72 hours. | See also: Recent months for locations in Victoria
Date/Time
EDT
Temp
°C
App
Temp
°C
Dew
Point
Rel
Hum
%
Delta-T
°C
Wind Press
QNH
hPa
Press
MSL
hPa
Rain
since 9 am
mm
Dir
 
Spd
km/h
Gust
km/h
Spd
kts
Gust
kts
06/02:30am - - - - - W 32 43 17 23 - - -
06/02:00am - - - - - W 30 37 16 20 - - -
06/01:30am - - - - - W 30 39 16 21 - - -
06/01:00am - - - - - W 33 44 18 24 - - -
06/12:30am - - - - - W 30 37 16 20 - - -
06/12:00am - - - - - W 35 46 19 25 - - -
 
Date/Time
EDT
Temp
°C
App
Temp
°C
Dew
Point
Rel
Hum
%
Delta-T
°C
Wind Press
QNH
hPa
Press
MSL
hPa
Rain
since 9 am
mm
Dir
 
Spd
km/h
Gust
km/h
Spd
kts
Gust
kts
05/11:30pm - - - - - W 32 41 17 22 - - -
05/11:00pm - - - - - W 30 37 16 20 - - -
05/10:30pm - - - - - W 33 44 18 24 - - -
05/10:00pm - - - - - W 39 50 21 27 - - -
05/09:30pm - - - - - WSW 35 44 19 24 - - -
05/09:00pm - - - - - WSW 39 48 21 26 - - -
05/08:30pm - - - - - WSW 39 48 21 26 - - -
05/08:00pm - - - - - WSW 46 57 25 31 - - -
05/07:30pm - - - - - WSW 41 50 22 27 - - -
05/07:00pm - - - - - SW 43 50 23 27 - - -
05/06:30pm - - - - - SW 37 48 20 26 - - -
05/06:23pm - - - - - SSW 32 44 17 24 - - -
05/06:00pm - - - - - SSW 30 37 16 20 - - -
05/05:30pm - - - - - S 24 32 13 17 - - -
05/05:00pm - - - - - S 32 39 17 21 - - -
05/04:30pm - - - - - SSW 30 39 16 21 - - -
05/04:00pm - - - - - S 26 35 14 19 - - -
05/03:30pm - - - - - S 30 35 16 19 - - -
05/03:00pm - - - - - SSW 30 39 16 21 - - -
05/02:30pm - - - - - SSW 33 43 18 23 - - -
05/02:00pm - - - - - SSW 35 43 19 23 - - -
05/01:30pm - - - - - SSW 33 43 18 23 - - -
05/01:00pm - - - - - SSW 41 54 22 29 - - -
05/12:30pm - - - - - SSW 41 48 22 26 - - -
05/12:00pm - - - - - SSW 41 54 22 29 - - -
05/11:30am - - - - - SW 46 61 25 33 - - -
05/11:00am - - - - - SW 50 63 27 34 - - -
05/10:45am - - - - - SW 48 67 26 36 - - -
05/10:30am - - - - - SW 50 63 27 34 - - -
05/10:00am - - - - - SW 50 63 27 34 - - -
05/09:30am - - - - - SW 57 69 31 37 - - -
05/09:00am - - - - - SW 57 70 31 38 - - -
05/08:30am - - - - - SW 56 69 30 37 - - -
05/08:00am - - - - - SW 50 67 27 36 - - -
05/07:53am - - - - - WSW 46 67 25 36 - - -
05/07:30am - - - - - WSW 43 50 23 27 - - -
05/07:00am - - - - - WSW 46 57 25 31 - - -
05/06:30am - - - - - WSW 50 63 27 34 - - -
05/06:00am - - - - - WSW 48 63 26 34 - - -
05/05:30am - - - - - WSW 50 63 27 34 - - -
05/05:00am - - - - - WSW 56 65 30 35 - - -
05/04:34am - - - - - SW 59 80 32 43 - - -
05/04:30am - - - - - SW 63 80 34 43 - - -
05/04:22am - - - - - WSW 59 80 32 43 - - -
05/04:00am - - - - - WSW 63 78 34 42 - - -
05/03:30am - - - - - WSW 67 82 36 44 - - -
05/03:00am - - - - - WSW 54 69 29 37 - - -
05/02:36am - - - - - WSW 54 72 29 39 - - -
05/02:30am - - - - - WSW 56 70 30 38 - - -
05/02:21am - - - - - WSW 52 70 28 38 - - -
05/02:17am - - - - - W 48 69 26 37 - - -
05/02:11am - - - - - WNW 41 59 22 32 - - -
05/02:00am - - - - - W 43 59 23 32 - - -
05/01:39am - - - - - W 41 63 22 34 - - -
05/01:30am - - - - - WSW 44 52 24 28 - - -
05/01:04am - - - - - W 33 54 18 29 - - -
05/01:00am - - - - - W 32 43 17 23 - - -
05/12:30am - - - - - W 46 57 25 31 - - -
05/12:00am - - - - - W 28 46 15 25 - - -
 
Date/Time
EDT
Temp
°C
App
Temp
°C
Dew
Point
Rel
Hum
%
Delta-T
°C
Wind Press
QNH
hPa
Press
MSL
hPa
Rain
since 9 am
mm
Dir
 
Spd
km/h
Gust
km/h
Spd
kts
Gust
kts
04/11:30pm - - - - - W 35 43 19 23 - - -
04/11:00pm - - - - - W 39 50 21 27 - - -
04/10:47pm - - - - - W 37 50 20 27 - - -
04/10:30pm - - - - - WSW 26 32 14 17 - - -
04/10:00pm - - - - - W 30 37 16 20 - - -
04/09:30pm - - - - - W 32 41 17 22 - - -
04/09:00pm - - - - - W 33 43 18 23 - - -
04/08:30pm - - - - - WSW 33 44 18 24 - - -
04/08:00pm - - - - - WSW 37 43 20 23 - - -
04/07:30pm - - - - - SW 32 39 17 21 - - -
04/07:00pm - - - - - SSW 24 41 13 22 - - -
04/06:59pm - - - - - SSW 22 41 12 22 - - -
04/06:30pm - - - - - SSE 17 20 9 11 - - -
04/06:00pm - - - - - S 15 20 8 11 - - -
04/05:30pm - - - - - S 19 22 10 12 - - -
04/05:00pm - - - - - S 20 24 11 13 - - -
04/04:30pm - - - - - SSE 15 19 8 10 - - -
04/04:00pm - - - - - SSE 11 15 6 8 - - -
04/03:30pm - - - - - SSE 13 15 7 8 - - -
04/02:30pm - - - - - SE 9 13 5 7 - - -
04/02:00pm - - - - - SE 7 13 4 7 - - -
04/01:30pm - - - - - SSE 9 13 5 7 - - -
04/01:00pm - - - - - S 9 13 5 7 - - -
04/12:30pm - - - - - S 9 15 5 8 - - -
04/12:00pm - - - - - SW 17 24 9 13 - - -
04/11:30am - - - - - SW 24 32 13 17 - - -
04/11:00am - - - - - WSW 19 26 10 14 - - -
04/10:30am - - - - - WSW 20 26 11 14 - - -
04/10:00am - - - - - WSW 22 30 12 16 - - -
04/09:30am - - - - - W 22 28 12 15 - - -
04/09:00am - - - - - W 24 28 13 15 - - -
04/08:30am - - - - - W 22 26 12 14 - - -
04/08:00am - - - - - W 20 24 11 13 - - -
04/07:30am - - - - - WSW 22 30 12 16 - - -
04/07:00am - - - - - WSW 22 30 12 16 - - -
04/06:30am - - - - - WSW 24 30 13 16 - - -
04/06:00am - - - - - WSW 26 32 14 17 - - -
04/05:30am - - - - - WSW 22 30 12 16 - - -
04/05:00am - - - - - SW 28 32 15 17 - - -
04/04:30am - - - - - WSW 26 30 14 16 - - -
04/04:00am - - - - - WSW 20 26 11 14 - - -
04/03:30am - - - - - NNE 4 6 2 3 - - -
04/03:00am - - - - - NNE 6 7 3 4 - - -
04/02:30am - - - - - E 7 11 4 6 - - -
04/02:00am - - - - - ESE 9 11 5 6 - - -
04/01:30am - - - - - ESE 9 11 5 6 - - -
04/01:00am - - - - - ENE 7 11 4 6 - - -
04/12:30am - - - - - E 7 13 4 7 - - -
04/12:00am - - - - - ESE 9 15 5 8 - - -
 
Date/Time
EDT
Temp
°C
App
Temp
°C
Dew
Point
Rel
Hum
%
Delta-T
°C
Wind Press
QNH
hPa
Press
MSL
hPa
Rain
since 9 am
mm
Dir
 
Spd
km/h
Gust
km/h
Spd
kts
Gust
kts
03/11:30pm - - - - - SE 9 22 5 12 - - -
03/11:00pm - - - - - S 19 26 10 14 - - -
03/10:30pm - - - - - SE 13 22 7 12 - - -
03/10:00pm - - - - - SE 15 20 8 11 - - -
03/09:30pm - - - - - SE 19 24 10 13 - - -
03/09:00pm - - - - - S 32 37 17 20 - - -
03/08:30pm - - - - - S 33 39 18 21 - - -
03/08:00pm - - - - - S 30 35 16 19 - - -
03/07:30pm - - - - - S 30 35 16 19 - - -
03/07:00pm - - - - - S 28 32 15 17 - - -
03/06:30pm - - - - - S 24 26 13 14 - - -
03/06:00pm - - - - - S 22 26 12 14 - - -
03/05:30pm - - - - - S 24 28 13 15 - - -
03/05:00pm - - - - - S 20 22 11 12 - - -
03/04:30pm - - - - - S 19 22 10 12 - - -
03/04:00pm - - - - - S 19 20 10 11 - - -
03/03:30pm - - - - - SSW 20 24 11 13 - - -
03/03:00pm - - - - - SSW 22 24 12 13 - - -
03/02:30pm - - - - - SSW 20 24 11 13 - - -
03/02:00pm - - - - - SSW 19 24 10 13 - - -
03/01:30pm - - - - - SSW 22 26 12 14 - - -
03/01:00pm - - - - - SSW 22 28 12 15 - - -
03/12:30pm - - - - - S 22 28 12 15 - - -
03/12:00pm - - - - - S 19 24 10 13 - - -
03/11:30am - - - - - S 17 22 9 12 - - -
03/11:00am - - - - - S 11 17 6 9 - - -
03/10:30am - - - - - SSW 15 20 8 11 - - -
03/10:00am - - - - - SSE 11 17 6 9 - - -
03/09:30am - - - - - SSE 9 17 5 9 - - -
03/09:00am - - - - - SSE 9 15 5 8 - - -
03/08:30am - - - - - SE 9 13 5 7 - - -
03/08:00am - - - - - SE 9 13 5 7 - - -
03/07:30am - - - - - E 7 9 4 5 - - -
03/07:00am - - - - - ESE 7 9 4 5 - - -
03/06:30am - - - - - ESE 7 9 4 5 - - -
03/06:00am - - - - - SE 9 15 5 8 - - -
03/05:30am - - - - - SE 9 13 5 7 - - -
03/05:00am - - - - - S 17 20 9 11 - - -
03/04:30am - - - - - S 19 24 10 13 - - -
03/04:00am - - - - - S 17 20 9 11 - - -
03/03:30am - - - - - S 19 24 10 13 - - -
03/03:00am - - - - - S 17 20 9 11 - - -

Other Formats:

Comma delimited format used in spreadsheet applications
http://www.bom.gov.au/fwo/IDV60801/IDV60801.95864.axf

JavaScript Object Notation format (JSON) in row-major order
http://www.bom.gov.au/fwo/IDV60801/IDV60801.95864.json